createdAt,value
2022-08-18T00:01:50.012Z,89.86
2022-08-18T00:04:55.374Z,89.70
2022-08-18T00:08:01.558Z,90.51
2022-08-18T00:11:04.906Z,90.94
2022-08-18T00:14:08.467Z,91.58
2022-08-18T00:17:11.389Z,92.59
2022-08-18T00:20:16.604Z,93.26
2022-08-18T00:23:20.507Z,94.32
2022-08-18T00:26:23.388Z,94.76
2022-08-18T00:29:26.748Z,94.08
2022-08-18T00:32:31.037Z,94.72
2022-08-18T00:35:35.859Z,95.37
2022-08-18T00:38:40.812Z,95.46
2022-08-18T00:41:43.320Z,95.60
2022-08-18T00:44:45.912Z,97.17
2022-08-18T00:47:48.397Z,97.47
2022-08-18T00:50:54.159Z,97.49
2022-08-18T00:54:03.905Z,97.35
2022-08-18T00:57:08.297Z,97.62
2022-08-18T01:00:13.204Z,98.17
2022-08-18T01:03:24.459Z,98.68
2022-08-18T01:06:33.312Z,97.88
2022-08-18T01:09:37.503Z,97.27
2022-08-18T01:12:46.241Z,96.89
2022-08-18T01:15:49.098Z,96.20
2022-08-18T01:19:09.779Z,96.76
2022-08-18T01:22:25.344Z,97.31
2022-08-18T01:25:49.064Z,97.06
2022-08-18T01:28:52.427Z,97.88
2022-08-18T01:31:56.041Z,98.21
2022-08-18T01:35:00.229Z,98.61
2022-08-18T01:38:02.659Z,99.38
2022-08-18T01:41:25.600Z,99.63
2022-08-18T01:44:29.891Z,100.00
2022-08-18T01:47:47.090Z,100.00
2022-08-18T01:50:53.461Z,100.00
2022-08-18T01:53:56.238Z,100.00
2022-08-18T01:57:00.696Z,100.00
2022-08-18T02:00:03.228Z,100.00
2022-08-18T02:03:08.628Z,100.00
2022-08-18T02:06:14.711Z,100.00
2022-08-18T02:09:17.368Z,100.00
2022-08-18T02:12:28.177Z,100.00
2022-08-18T02:15:30.659Z,100.00
2022-08-18T02:18:47.449Z,100.00
2022-08-18T02:21:52.688Z,100.00
2022-08-18T02:24:57.515Z,100.00
2022-08-18T02:28:01.315Z,100.00
2022-08-18T02:31:09.063Z,100.00
2022-08-18T02:34:13.955Z,100.00
2022-08-18T02:37:16.377Z,100.00
2022-08-18T02:40:19.477Z,100.00
2022-08-18T02:43:23.446Z,100.00
2022-08-18T02:46:30.210Z,100.00
2022-08-18T02:49:34.077Z,100.00
2022-08-18T02:52:36.659Z,100.00
2022-08-18T02:55:40.804Z,100.00
2022-08-18T02:58:44.608Z,100.00
2022-08-18T03:01:50.734Z,100.00
2022-08-18T03:04:53.484Z,100.00
2022-08-18T03:07:55.928Z,100.00
2022-08-18T03:10:58.758Z,100.00
2022-08-18T03:14:03.037Z,100.00
2022-08-18T03:17:08.195Z,100.00
2022-08-18T03:20:11.516Z,100.00
2022-08-18T03:23:14.185Z,100.00
2022-08-18T03:26:17.752Z,100.00
2022-08-18T03:29:22.127Z,100.00
2022-08-18T03:32:24.571Z,100.00
2022-08-18T03:35:27.039Z,100.00
2022-08-18T03:38:29.500Z,100.00
2022-08-18T03:41:56.992Z,100.00
2022-08-18T03:44:55.849Z,100.00
2022-08-18T03:48:00.438Z,100.00
2022-08-18T03:51:06.755Z,100.00
2022-08-18T03:54:09.722Z,100.00
2022-08-18T03:57:13.154Z,100.00
2022-08-18T04:00:17.999Z,100.00
2022-08-18T04:03:20.480Z,100.00
2022-08-18T04:06:30.379Z,100.00
2022-08-18T04:09:34.591Z,100.00
2022-08-18T04:12:39.732Z,100.00
2022-08-18T04:15:43.590Z,100.00
2022-08-18T04:18:46.027Z,100.00
2022-08-18T04:21:53.098Z,100.00
2022-08-18T04:24:55.631Z,100.00
2022-08-18T04:28:03.377Z,100.00
2022-08-18T04:31:13.170Z,100.00
2022-08-18T04:34:16.141Z,100.00
2022-08-18T04:37:19.284Z,100.00
2022-08-18T04:40:25.172Z,100.00
2022-08-18T04:43:27.953Z,100.00
2022-08-18T04:46:36.067Z,100.00
2022-08-18T04:49:38.856Z,100.00
2022-08-18T04:52:59.080Z,100.00
2022-08-18T04:56:01.531Z,100.00
2022-08-18T04:59:09.483Z,100.00
2022-08-18T05:02:14.996Z,100.00
2022-08-18T05:05:17.810Z,100.00
2022-08-18T05:08:20.499Z,100.00
2022-08-18T05:11:24.418Z,100.00
2022-08-18T05:14:27.583Z,100.00
2022-08-18T05:17:31.399Z,100.00
2022-08-18T05:20:33.882Z,100.00
2022-08-18T05:23:36.330Z,100.00
2022-08-18T05:26:41.048Z,100.00
2022-08-18T05:29:46.094Z,100.00
2022-08-18T05:32:50.730Z,100.00
2022-08-18T05:36:03.404Z,98.73
2022-08-18T05:39:13.371Z,96.95
2022-08-18T05:42:19.344Z,90.65
2022-08-18T05:45:21.803Z,84.83
2022-08-18T05:48:25.607Z,85.85
2022-08-18T05:51:32.118Z,88.14
2022-08-18T05:54:58.203Z,88.42
2022-08-18T05:58:04.381Z,88.37
2022-08-18T06:01:12.532Z,87.97
2022-08-18T06:04:24.391Z,85.96
2022-08-18T06:07:35.413Z,85.79
2022-08-18T06:10:38.012Z,86.21
2022-08-18T06:13:43.493Z,81.48
2022-08-18T06:17:08.054Z,79.03
2022-08-18T06:20:21.156Z,79.09
2022-08-18T06:23:30.972Z,80.65
2022-08-18T06:26:41.332Z,79.35
2022-08-18T06:29:58.771Z,79.20
2022-08-18T06:33:11.573Z,78.55
2022-08-18T06:36:27.060Z,78.12
2022-08-18T06:39:35.595Z,75.86
2022-08-18T06:42:40.579Z,72.62
2022-08-18T06:45:46.040Z,70.56
2022-08-18T06:48:54.643Z,66.43
2022-08-18T06:51:58.413Z,64.04
2022-08-18T06:55:03.398Z,64.04
2022-08-18T06:58:20.778Z,62.24
2022-08-18T07:01:25.709Z,62.21
2022-08-18T07:04:34.356Z,61.32
2022-08-18T07:07:41.146Z,60.03
2022-08-18T07:10:46.019Z,57.88
2022-08-18T07:14:09.105Z,57.27
2022-08-18T07:17:22.179Z,60.15
2022-08-18T07:20:25.873Z,61.35
2022-08-18T07:23:34.701Z,63.57
2022-08-18T07:27:00.099Z,63.86
2022-08-18T07:30:06.055Z,63.01
2022-08-18T07:33:19.086Z,61.94
2022-08-18T07:36:25.717Z,61.86
2022-08-18T07:39:34.216Z,62.20
2022-08-18T07:43:01.653Z,62.48
2022-08-18T07:46:11.541Z,61.74
2022-08-18T07:49:21.994Z,61.61
2022-08-18T07:52:44.059Z,63.06
2022-08-18T07:55:56.856Z,65.66
2022-08-18T07:59:08.899Z,63.61
2022-08-18T08:02:24.027Z,64.25
2022-08-18T08:05:40.448Z,62.93
2022-08-18T08:08:45.064Z,60.70
2022-08-18T08:11:59.227Z,60.17
2022-08-18T08:15:13.605Z,58.79
2022-08-18T08:18:22.387Z,59.64
2022-08-18T08:21:29.807Z,59.58
2022-08-18T08:24:40.465Z,60.67
2022-08-18T08:27:59.563Z,61.55
2022-08-18T08:31:35.893Z,61.23
2022-08-18T08:34:43.688Z,62.13
2022-08-18T08:37:52.694Z,61.06
2022-08-18T08:41:04.377Z,60.62
2022-08-18T08:44:11.865Z,61.75
2022-08-18T08:47:23.264Z,61.91
2022-08-18T08:50:28.191Z,60.45
2022-08-18T08:53:35.311Z,59.98
2022-08-18T08:56:44.429Z,57.90
2022-08-18T08:59:51.672Z,58.33
2022-08-18T09:03:03.117Z,56.28
2022-08-18T09:06:22.667Z,56.34
2022-08-18T09:09:41.083Z,56.51
2022-08-18T09:12:54.784Z,56.14
2022-08-18T09:16:13.696Z,56.50
2022-08-18T09:19:34.370Z,56.22
2022-08-18T09:22:46.560Z,53.87
2022-08-18T09:25:51.926Z,55.60
2022-08-18T09:28:58.862Z,55.25
2022-08-18T09:32:37.284Z,55.77
2022-08-18T09:35:57.822Z,55.47
2022-08-18T09:39:27.681Z,54.91
2022-08-18T09:42:50.001Z,55.13
2022-08-18T09:45:56.320Z,54.01
2022-08-18T09:49:37.991Z,53.09
2022-08-18T09:52:50.126Z,51.70
2022-08-18T09:56:04.816Z,52.40
2022-08-18T09:59:10.828Z,51.95
2022-08-18T10:02:36.905Z,52.55
2022-08-18T10:05:42.202Z,51.68
2022-08-18T10:09:26.820Z,51.25
2022-08-18T10:13:08.459Z,48.85
2022-08-18T10:16:21.252Z,47.88
2022-08-18T10:19:33.820Z,48.58
2022-08-18T10:22:47.500Z,48.52
2022-08-18T10:25:50.249Z,47.38
2022-08-18T10:28:55.617Z,47.87
2022-08-18T10:32:24.593Z,47.15
2022-08-18T10:35:57.788Z,46.39
2022-08-18T10:39:06.690Z,44.64
2022-08-18T10:42:19.247Z,44.67
2022-08-18T10:45:26.848Z,45.47
2022-08-18T10:48:31.953Z,45.63
2022-08-18T10:51:59.477Z,44.89
2022-08-18T10:55:16.303Z,44.54
2022-08-18T10:58:36.649Z,44.08
2022-08-18T11:02:04.863Z,44.20
2022-08-18T11:05:10.968Z,45.53
2022-08-18T11:08:17.242Z,43.86
2022-08-18T11:11:37.449Z,44.17
2022-08-18T11:15:22.059Z,44.67
2022-08-18T11:18:36.399Z,44.10
2022-08-18T11:21:51.105Z,43.89
2022-08-18T11:24:54.269Z,41.49
2022-08-18T11:27:59.139Z,42.66
2022-08-18T11:31:01.703Z,40.76
2022-08-18T11:34:18.351Z,39.28
2022-08-18T11:37:27.111Z,38.32
2022-08-18T11:41:10.727Z,38.62
2022-08-18T11:44:02.619Z,38.57
2022-08-18T11:47:17.326Z,37.52
2022-08-18T11:50:28.162Z,37.37
2022-08-18T11:53:43.013Z,38.07
2022-08-18T11:56:47.643Z,40.03
2022-08-18T12:03:21.833Z,38.38
2022-08-18T12:06:29.860Z,38.87
2022-08-18T12:13:03.619Z,36.81
2022-08-18T12:16:13.927Z,33.85
2022-08-18T12:19:17.459Z,34.28
2022-08-18T12:22:26.121Z,35.52
2022-08-18T12:25:28.549Z,34.21
2022-08-18T12:28:31.269Z,35.98
2022-08-18T12:31:47.552Z,37.15
2022-08-18T12:34:51.532Z,36.92
2022-08-18T12:37:59.584Z,35.79
2022-08-18T12:41:03.483Z,34.30
2022-08-18T12:44:09.987Z,35.29
2022-08-18T12:47:21.058Z,34.20
2022-08-18T12:50:31.346Z,32.41
2022-08-18T12:53:57.851Z,32.08
2022-08-18T12:57:00.719Z,30.97
2022-08-18T13:00:04.179Z,32.24
2022-08-18T13:03:08.742Z,32.33
2022-08-18T13:06:11.656Z,32.32
2022-08-18T13:09:16.373Z,29.01
2022-08-18T13:12:37.451Z,28.28
2022-08-18T13:15:44.399Z,29.02
2022-08-18T13:19:02.938Z,28.23
2022-08-18T13:22:09.442Z,27.86
2022-08-18T13:25:32.415Z,27.62
2022-08-18T13:28:57.283Z,28.31
2022-08-18T13:32:00.828Z,28.72
2022-08-18T13:35:13.357Z,30.25
2022-08-18T13:38:25.629Z,32.25
2022-08-18T13:41:32.667Z,32.49
2022-08-18T13:44:35.545Z,30.69
2022-08-18T13:47:39.467Z,30.53
2022-08-18T13:50:45.962Z,31.67
2022-08-18T13:54:14.360Z,31.52
2022-08-18T13:57:11.213Z,32.23
2022-08-18T14:00:20.254Z,32.04
2022-08-18T14:03:46.934Z,32.21
2022-08-18T14:06:57.328Z,32.31
2022-08-18T14:10:04.929Z,33.84
2022-08-18T14:13:20.258Z,35.40
2022-08-18T14:16:27.410Z,36.26
2022-08-18T14:19:47.588Z,36.98
2022-08-18T14:23:11.521Z,36.82
2022-08-18T14:26:31.958Z,35.99
2022-08-18T14:29:45.541Z,36.17
2022-08-18T14:32:53.471Z,35.55
2022-08-18T14:36:06.334Z,35.97
2022-08-18T14:39:13.898Z,38.79
2022-08-18T14:42:18.955Z,44.34
2022-08-18T14:45:34.392Z,46.13
2022-08-18T14:48:38.270Z,47.69
2022-08-18T14:51:46.041Z,49.19
2022-08-18T14:54:51.747Z,49.17
2022-08-18T14:57:59.377Z,49.64
2022-08-18T15:01:10.382Z,48.72
2022-08-18T15:04:19.082Z,47.92
2022-08-18T15:07:24.135Z,47.64
2022-08-18T15:10:29.006Z,47.01
2022-08-18T15:13:32.097Z,47.09
2022-08-18T15:16:35.004Z,49.54
2022-08-18T15:19:59.945Z,50.31
2022-08-18T15:23:27.919Z,49.68
2022-08-18T15:26:32.429Z,49.23
2022-08-18T15:29:37.133Z,48.44
2022-08-18T15:32:45.443Z,49.02
2022-08-18T15:35:50.505Z,49.23
2022-08-18T15:38:53.629Z,48.79
2022-08-18T15:41:58.276Z,50.08
2022-08-18T15:45:12.097Z,52.14
2022-08-18T15:48:17.570Z,51.75
2022-08-18T15:51:20.329Z,56.15
2022-08-18T15:54:22.998Z,61.11
2022-08-18T15:57:35.304Z,61.11
2022-08-18T16:00:50.594Z,71.38
2022-08-18T16:03:54.492Z,72.57
2022-08-18T16:06:57.421Z,68.16
2022-08-18T16:09:59.937Z,68.21
2022-08-18T16:13:05.124Z,72.33
2022-08-18T16:16:13.166Z,73.91
2022-08-18T16:19:15.664Z,73.68
2022-08-18T16:22:21.674Z,73.73
2022-08-18T16:25:24.545Z,73.76
2022-08-18T16:28:34.775Z,76.56
2022-08-18T16:31:37.642Z,74.21
2022-08-18T16:34:40.372Z,77.86
2022-08-18T16:37:43.149Z,75.50
2022-08-18T16:40:46.193Z,78.75
2022-08-18T16:43:50.373Z,79.45
2022-08-18T16:46:52.898Z,80.59
2022-08-18T16:49:58.472Z,82.79
2022-08-18T16:53:01.945Z,83.67
2022-08-18T16:56:05.089Z,86.12
2022-08-18T16:59:34.774Z,82.89
2022-08-18T17:02:54.629Z,81.46
2022-08-18T17:06:01.484Z,83.44
2022-08-18T17:09:09.821Z,84.81
2022-08-18T17:12:12.729Z,84.84
2022-08-18T17:15:16.746Z,87.63
2022-08-18T17:18:19.851Z,95.51
2022-08-18T17:21:29.697Z,99.32
2022-08-18T17:24:32.683Z,100.00
2022-08-18T17:27:37.298Z,100.00
2022-08-18T17:30:47.133Z,100.00
2022-08-18T17:33:49.976Z,100.00
2022-08-18T17:36:55.889Z,100.00
2022-08-18T17:40:04.199Z,100.00
2022-08-18T17:43:11.697Z,100.00
2022-08-18T17:46:25.929Z,100.00
2022-08-18T17:49:46.930Z,100.00
2022-08-18T17:52:56.382Z,100.00
2022-08-18T17:56:02.734Z,100.00
2022-08-18T17:59:46.072Z,100.00
2022-08-18T18:02:35.597Z,100.00
2022-08-18T18:05:42.716Z,100.00
2022-08-18T18:08:50.571Z,100.00
2022-08-18T18:11:53.099Z,100.00
2022-08-18T18:14:55.720Z,100.00
2022-08-18T18:18:20.091Z,100.00
2022-08-18T18:21:23.836Z,100.00
2022-08-18T18:24:51.143Z,100.00
2022-08-18T18:27:53.743Z,100.00
2022-08-18T18:31:00.311Z,100.00
2022-08-18T18:34:07.567Z,100.00
2022-08-18T18:37:33.191Z,100.00
2022-08-18T18:40:39.653Z,100.00
2022-08-18T18:43:44.671Z,100.00
2022-08-18T18:47:01.308Z,100.00
2022-08-18T18:50:10.564Z,100.00
2022-08-18T18:53:23.777Z,100.00
2022-08-18T18:56:30.647Z,100.00
2022-08-18T18:59:46.384Z,100.00
2022-08-18T19:02:59.335Z,100.00
2022-08-18T19:06:14.365Z,100.00
2022-08-18T19:09:23.225Z,100.00
2022-08-18T19:12:31.018Z,100.00
2022-08-18T19:15:38.398Z,100.00
2022-08-18T19:18:57.974Z,100.00
2022-08-18T19:22:19.002Z,100.00
2022-08-18T19:25:27.191Z,100.00
2022-08-18T19:28:35.139Z,100.00
2022-08-18T19:32:02.082Z,100.00
2022-08-18T19:35:11.880Z,100.00
2022-08-18T19:38:22.660Z,100.00
2022-08-18T19:41:38.969Z,100.00
2022-08-18T19:45:13.122Z,100.00
2022-08-18T19:48:26.065Z,100.00
2022-08-18T19:51:33.511Z,100.00
2022-08-18T19:54:51.865Z,100.00
2022-08-18T19:58:22.788Z,100.00
2022-08-18T20:01:36.812Z,100.00
2022-08-18T20:04:51.829Z,100.00
2022-08-18T20:08:29.754Z,100.00
2022-08-18T20:11:50.478Z,100.00
2022-08-18T20:15:01.982Z,100.00
2022-08-18T20:18:19.281Z,100.00
2022-08-18T20:24:50.818Z,100.00
2022-08-18T20:28:23.568Z,100.00
2022-08-18T20:31:26.619Z,100.00
2022-08-18T20:34:31.273Z,100.00
2022-08-18T20:37:33.950Z,100.00
2022-08-18T20:40:38.972Z,100.00
2022-08-18T20:43:42.948Z,100.00
2022-08-18T20:46:55.240Z,100.00
2022-08-18T20:50:19.463Z,100.00
2022-08-18T20:53:40.125Z,100.00
2022-08-18T20:56:48.124Z,100.00
2022-08-18T20:59:56.386Z,100.00
2022-08-18T21:03:00.874Z,100.00
2022-08-18T21:06:04.933Z,100.00
2022-08-18T21:09:07.485Z,100.00
2022-08-18T21:12:14.406Z,100.00
2022-08-18T21:15:18.611Z,100.00
2022-08-18T21:18:23.186Z,100.00
2022-08-18T21:21:28.350Z,100.00
2022-08-18T21:24:34.009Z,100.00
2022-08-18T21:27:39.077Z,100.00
2022-08-18T21:30:56.057Z,100.00
2022-08-18T21:34:35.566Z,100.00
2022-08-18T21:37:42.329Z,100.00
2022-08-18T21:43:50.807Z,100.00
2022-08-18T21:47:05.563Z,100.00
2022-08-18T21:50:12.204Z,100.00
2022-08-18T21:53:20.834Z,100.00
2022-08-18T21:56:25.721Z,100.00
2022-08-18T21:59:28.189Z,100.00
2022-08-18T22:02:32.149Z,100.00
2022-08-18T22:05:58.438Z,100.00
2022-08-18T22:09:20.405Z,100.00
2022-08-18T22:12:49.448Z,100.00
2022-08-18T22:15:52.344Z,100.00
2022-08-18T22:19:09.282Z,100.00
2022-08-18T22:22:25.760Z,100.00
2022-08-18T22:25:28.258Z,100.00
2022-08-18T22:28:30.740Z,100.00
2022-08-18T22:31:35.606Z,100.00
2022-08-18T22:34:40.473Z,100.00
2022-08-18T22:37:50.570Z,100.00
2022-08-18T22:40:53.297Z,100.00
2022-08-18T22:43:57.558Z,100.00
2022-08-18T22:47:00.261Z,100.00
2022-08-18T22:50:05.147Z,100.00
2022-08-18T22:53:07.638Z,100.00
2022-08-18T22:56:10.073Z,100.00
2022-08-18T22:59:19.585Z,100.00
2022-08-18T23:02:22.646Z,100.00
2022-08-18T23:05:26.451Z,100.00
2022-08-18T23:08:35.728Z,100.00
2022-08-18T23:11:53.764Z,100.00
2022-08-18T23:14:56.195Z,100.00
2022-08-18T23:17:58.706Z,100.00
2022-08-18T23:21:02.779Z,100.00
2022-08-18T23:24:05.509Z,100.00
2022-08-18T23:27:09.354Z,100.00
2022-08-18T23:30:12.478Z,100.00
2022-08-18T23:33:15.812Z,100.00
2022-08-18T23:36:19.687Z,100.00
2022-08-18T23:39:22.801Z,100.00
2022-08-18T23:42:25.293Z,100.00
2022-08-18T23:45:28.880Z,100.00
2022-08-18T23:48:31.475Z,100.00
2022-08-18T23:51:38.085Z,100.00
2022-08-18T23:54:40.520Z,100.00
2022-08-18T23:57:42.968Z,100.00
